Time;durP1;ratioP1;P1;durP2;ratioP2;P2;SDS_P1;SDS_P2;PMS_P1;PMS_P2;Temp;Humidity;BMP_temperature;BMP_pressure;BME280_temperature;BME280_humidity;BME280_pressure;Samples;Min_cycle;Max_cycle;Signal;HPM_P1;HPM_P2
2022/07/27 00:00:54;;;;;;;6.80;1.30;;;;;;;13.76;70.79;101080.83;107936;1275;71509;-81
2022/07/27 00:03:22;;;;;;;4.20;1.10;;;;;;;13.73;70.87;101086.55;108059;1276;72669;-82
2022/07/27 00:05:49;;;;;;;6.10;1.40;;;;;;;13.71;70.98;101091.98;108044;1276;62250;-81
2022/07/27 00:08:19;;;;;;;6.30;1.60;;;;;;;13.69;71.21;101086.35;107895;1276;60784;-81
2022/07/27 00:10:46;;;;;;;5.70;1.50;;;;;;;13.68;71.52;101088.26;107919;1276;74741;-81
2022/07/27 00:13:13;;;;;;;3.70;1.20;;;;;;;13.67;71.55;101086.05;108069;1275;72730;-81
2022/07/27 00:15:41;;;;;;;7.50;1.40;;;;;;;13.67;71.92;101079.84;107886;1275;74970;-82
2022/07/27 00:18:08;;;;;;;5.40;1.50;;;;;;;13.67;72.11;101082.80;107955;1275;62118;-81
2022/07/27 00:20:36;;;;;;;7.40;1.60;;;;;;;13.66;72.22;101083.81;107912;1275;60435;-81
2022/07/27 00:23:03;;;;;;;4.80;1.20;;;;;;;13.68;72.18;101086.29;107940;1277;74875;-82
2022/07/27 00:25:30;;;;;;;7.30;1.20;;;;;;;13.68;72.20;101083.25;108017;1275;73359;-82
2022/07/27 00:27:57;;;;;;;5.10;1.40;;;;;;;13.70;72.25;101084.55;108071;1275;72686;-81
2022/07/27 00:30:25;;;;;;;6.50;1.50;;;;;;;13.72;72.39;101081.88;107909;1275;62208;-81
2022/07/27 00:32:52;;;;;;;5.70;1.00;;;;;;;13.73;72.33;101078.19;107987;1275;60469;-81
2022/07/27 00:35:19;;;;;;;6.50;1.40;;;;;;;13.74;72.39;101078.45;107798;1277;75583;-81
2022/07/27 00:37:46;;;;;;;6.30;1.20;;;;;;;13.75;72.24;101079.38;108045;1275;72118;-82
2022/07/27 00:40:14;;;;;;;5.00;1.30;;;;;;;13.76;72.43;101079.75;108094;1276;74389;-82
2022/07/27 00:42:41;;;;;;;6.20;1.40;;;;;;;13.77;72.60;101076.84;108020;1275;62781;-82
2022/07/27 00:45:08;;;;;;;6.70;1.50;;;;;;;13.77;72.35;101072.94;107979;1275;60299;-82
2022/07/27 00:47:35;;;;;;;5.60;1.20;;;;;;;13.76;73.04;101071.95;107956;1275;75988;-82
2022/07/27 00:50:03;;;;;;;6.70;1.20;;;;;;;13.75;73.01;101070.96;108023;1277;72458;-82
2022/07/27 00:52:30;;;;;;;5.90;1.40;;;;;;;13.75;73.14;101069.05;107976;1276;72903;-82
2022/07/27 00:54:58;;;;;;;7.10;1.60;;;;;;;13.75;73.17;101070.14;107818;1276;62030;-81
2022/07/27 00:57:25;;;;;;;3.90;1.20;;;;;;;13.74;73.27;101065.08;108013;1275;60644;-81
2022/07/27 00:59:52;;;;;;;4.80;1.20;;;;;;;13.74;73.49;101070.25;107973;1276;77159;-81
2022/07/27 01:02:19;;;;;;;4.70;1.10;;;;;;;13.74;73.27;101071.36;108240;1276;70536;-81
2022/07/27 01:04:48;;;;;;;6.50;1.30;;;;;;;13.75;73.44;101070.14;108279;1277;72956;-81
2022/07/27 01:07:21;;;;;;;5.90;1.50;;;;;;;13.74;73.31;101073.61;108045;1275;61947;-81
2022/07/27 01:09:55;;;;;;;5.70;1.10;;;;;;;13.74;73.28;101068.98;108079;1275;60644;-82
2022/07/27 01:12:23;;;;;;;7.20;1.90;;;;;;;13.75;73.15;101073.50;108047;1276;75249;-82
2022/07/27 01:14:51;;;;;;;4.90;1.30;;;;;;;13.75;73.27;101072.77;108152;1275;71176;-82
2022/07/27 01:17:18;;;;;;;6.10;1.30;;;;;;;13.75;73.06;101074.00;108025;1275;73198;-82
2022/07/27 01:19:46;;;;;;;5.50;1.10;;;;;;;13.75;73.23;101074.38;107880;1277;64117;-81
2022/07/27 01:22:13;;;;;;;5.30;1.50;;;;;;;13.74;73.29;101075.05;108022;1275;60294;-82
2022/07/27 01:24:40;;;;;;;5.60;1.50;;;;;;;13.73;73.39;101076.46;108011;1276;75151;-81
2022/07/27 01:27:07;;;;;;;3.10;1.00;;;;;;;13.71;73.53;101077.16;107887;1275;71434;-82
2022/07/27 01:29:35;;;;;;;5.30;1.40;;;;;;;13.70;73.72;101074.30;107735;1276;74250;-81
2022/07/27 01:32:03;;;;;;;6.20;1.20;;;;;;;13.68;73.64;101071.93;108043;1275;61993;-81
2022/07/27 01:34:32;;;;;;;5.60;1.40;;;;;;;13.66;73.75;101075.35;107869;1277;61223;-81
2022/07/27 01:37:03;;;;;;;6.10;1.90;;;;;;;13.62;73.87;101078.55;107936;1275;73883;-82
2022/07/27 01:39:30;;;;;;;5.80;1.60;;;;;;;13.60;74.04;101082.12;107688;1275;72605;-82
2022/07/27 01:41:58;;;;;;;4.50;1.30;;;;;;;13.55;74.23;101079.65;107839;1275;73065;-82
2022/07/27 01:44:25;;;;;;;6.30;1.50;;;;;;;13.51;74.41;101083.32;107745;1277;61977;-82
2022/07/27 01:46:52;;;;;;;5.20;1.50;;;;;;;13.46;74.42;101084.61;107902;1277;61799;-82
2022/07/27 01:49:20;;;;;;;6.50;1.60;;;;;;;13.41;74.41;101082.54;107832;1276;74790;-81
2022/07/27 01:51:47;;;;;;;5.10;1.40;;;;;;;13.35;74.57;101086.45;107501;1278;72253;-81
2022/07/27 01:54:14;;;;;;;4.90;1.90;;;;;;;13.30;74.92;101084.45;107718;1277;73340;-81
2022/07/27 01:56:41;;;;;;;7.10;1.80;;;;;;;13.24;75.40;101081.77;107887;1278;61426;-81
2022/07/27 01:59:08;;;;;;;4.30;1.50;;;;;;;13.20;75.59;101085.29;107818;1277;60696;-81
2022/07/27 02:01:43;;;;;;;7.10;1.50;;;;;;;13.15;76.07;101082.45;107674;1277;75774;-81
2022/07/27 02:04:10;;;;;;;6.40;1.90;;;;;;;13.09;76.76;101079.95;107992;1277;71513;-81
2022/07/27 02:06:37;;;;;;;7.30;1.60;;;;;;;13.04;76.71;101078.86;107991;1277;73083;-82
2022/07/27 02:09:04;;;;;;;6.20;2.00;;;;;;;12.99;77.01;101080.19;107549;1277;63303;-81
2022/07/27 02:14:17;;;;;;;4.50;1.60;;;;;;;12.93;77.03;101070.66;107883;1277;76210;-82
2022/07/27 02:16:47;;;;;;;6.70;1.70;;;;;;;12.92;77.28;101075.10;107632;1276;71460;-82
2022/07/27 02:19:15;;;;;;;4.60;1.50;;;;;;;12.89;77.28;101073.96;107789;1277;72807;-81
2022/07/27 02:21:44;;;;;;;6.50;1.80;;;;;;;12.87;77.61;101068.75;107845;1277;63791;-82
2022/07/27 02:24:11;;;;;;;5.40;1.50;;;;;;;12.84;77.84;101068.52;107851;1278;61051;-82
2022/07/27 02:26:38;;;;;;;6.40;1.40;;;;;;;12.82;78.14;101067.86;107474;1277;75471;-81
2022/07/27 02:29:05;;;;;;;8.50;1.40;;;;;;;12.81;78.12;101070.67;107535;1277;71196;-82
2022/07/27 02:31:32;;;;;;;8.10;1.70;;;;;;;12.79;78.08;101073.33;107662;1277;74468;-82
2022/07/27 02:33:59;;;;;;;7.70;1.50;;;;;;;12.80;78.07;101074.00;107842;1277;65037;-82
2022/07/27 02:36:28;;;;;;;6.70;1.50;;;;;;;12.81;77.97;101078.80;107757;1277;61129;-81
2022/07/27 02:38:56;;;;;;;8.70;1.80;;;;;;;12.82;78.06;101076.06;107651;1277;74954;-82
2022/07/27 02:41:23;;;;;;;4.10;1.40;;;;;;;12.82;78.07;101080.61;107703;1277;72454;-81
2022/07/27 02:43:50;;;;;;;7.10;1.70;;;;;;;12.82;78.27;101080.48;107694;1277;73456;-82
2022/07/27 02:46:17;;;;;;;6.30;1.50;;;;;;;12.80;78.54;101079.09;107626;1277;63420;-83
2022/07/27 02:48:44;;;;;;;7.40;1.50;;;;;;;12.78;78.79;101080.71;107839;1276;61446;-83
2022/07/27 02:51:13;;;;;;;4.10;1.50;;;;;;;12.76;78.67;101080.63;107940;1275;76455;-82
2022/07/27 02:53:41;;;;;;;8.60;1.50;;;;;;;12.75;79.11;101076.19;108095;1275;72700;-84
2022/07/27 02:56:07;;;;;;;5.70;1.60;;;;;;;12.72;79.14;101074.61;107692;1277;72995;-83
2022/07/27 02:58:34;;;;;;;5.50;1.50;;;;;;;12.70;79.29;101074.43;107936;1275;62381;-83
2022/07/27 03:01:02;;;;;;;6.50;1.70;;;;;;;12.69;79.60;101073.46;107934;1277;60414;-83
2022/07/27 03:03:33;;;;;;;5.20;1.40;;;;;;;12.68;79.80;101079.21;107940;1275;75052;-84
2022/07/27 03:06:06;;;;;;;4.70;1.40;;;;;;;12.67;79.47;101075.65;107981;1277;70473;-83
2022/07/27 03:08:34;;;;;;;7.20;1.60;;;;;;;12.67;80.21;101073.36;107842;1275;73236;-83
2022/07/27 03:11:00;;;;;;;6.00;1.50;;;;;;;12.67;79.89;101072.83;107761;1277;60913;-83
2022/07/27 03:13:28;;;;;;;4.00;1.20;;;;;;;12.68;79.85;101069.52;107891;1277;60660;-83
2022/07/27 03:15:55;;;;;;;3.50;1.40;;;;;;;12.70;79.79;101072.87;107861;1275;75405;-84
2022/07/27 03:18:23;;;;;;;5.10;1.50;;;;;;;12.71;79.79;101074.27;107665;1275;72318;-83
2022/07/27 03:20:49;;;;;;;6.00;1.70;;;;;;;12.72;79.86;101077.52;107974;1277;72944;-84
2022/07/27 03:23:17;;;;;;;5.80;1.50;;;;;;;12.73;79.97;101080.65;107677;1275;63145;-82
2022/07/27 03:25:44;;;;;;;7.10;1.40;;;;;;;12.72;80.30;101077.41;107822;1276;60729;-83
2022/07/27 03:28:11;;;;;;;3.30;1.30;;;;;;;12.73;80.24;101077.86;107852;1277;75089;-83
2022/07/27 03:30:37;;;;;;;6.90;1.20;;;;;;;12.71;80.50;101080.04;107862;1277;71365;-83
2022/07/27 03:33:04;;;;;;;4.60;1.30;;;;;;;12.69;80.73;101081.09;107960;1276;73069;-84
2022/07/27 03:35:31;;;;;;;5.00;1.40;;;;;;;12.69;80.39;101082.55;107787;1276;62297;-84
2022/07/27 03:37:58;;;;;;;4.30;1.50;;;;;;;12.69;80.36;101083.11;108049;1275;60884;-84
2022/07/27 03:40:28;;;;;;;5.60;1.50;;;;;;;12.69;80.41;101087.54;107491;1277;75130;-83
2022/07/27 03:42:55;;;;;;;5.60;1.40;;;;;;;12.69;80.59;101090.87;107778;1275;71318;-83
2022/07/27 03:45:22;;;;;;;4.30;1.40;;;;;;;12.69;80.80;101090.83;107937;1275;73425;-83
2022/07/27 03:50:23;;;;;;;2.90;1.30;;;;;;;12.70;80.91;101097.55;107981;1265;153417;-84
2022/07/27 03:52:52;;;;;;;5.20;1.50;;;;;;;12.70;80.98;101096.38;107762;1272;76106;-85
2022/07/27 03:55:26;;;;;;;6.30;1.30;;;;;;;12.72;81.00;101093.50;108086;1272;70955;-85
2022/07/27 03:57:53;;;;;;;7.10;1.50;;;;;;;12.74;80.85;101092.63;108317;1272;74974;-85
2022/07/27 04:00:20;;;;;;;5.80;1.80;;;;;;;12.78;80.71;101097.13;108328;1272;61952;-85
2022/07/27 04:02:49;;;;;;;4.20;1.30;;;;;;;12.79;80.99;101093.71;108319;1273;60718;-86
2022/07/27 04:05:17;;;;;;;4.10;1.30;;;;;;;12.82;80.75;101098.71;108352;1273;75197;-84
2022/07/27 04:07:43;;;;;;;5.90;1.40;;;;;;;12.83;80.86;101095.00;108331;1273;71068;-85
2022/07/27 04:10:10;;;;;;;7.80;1.50;;;;;;;12.85;80.96;101096.42;108524;1273;73080;-85
2022/07/27 04:12:40;;;;;;;8.90;1.50;;;;;;;12.88;80.88;101098.02;108538;1272;62111;-85
2022/07/27 04:15:07;;;;;;;5.60;1.50;;;;;;;12.92;80.81;101101.33;108431;1273;60409;-85
2022/07/27 04:17:34;;;;;;;6.40;1.50;;;;;;;12.97;80.71;101100.17;108531;1273;76374;-85
2022/07/27 04:20:21;;;;;;;3.80;1.30;;;;;;;13.03;80.38;101099.21;108417;1273;73023;-84
2022/07/27 04:22:48;;;;;;;5.90;1.30;;;;;;;13.09;80.29;101103.29;108423;1273;72971;-85
2022/07/27 04:25:15;;;;;;;6.10;1.40;;;;;;;13.11;80.16;101101.29;108405;1273;63238;-84
2022/07/27 04:27:42;;;;;;;6.40;1.60;;;;;;;13.13;79.94;101099.15;108302;1272;60451;-86
2022/07/27 04:30:10;;;;;;;5.70;1.70;;;;;;;13.16;80.07;101093.58;108422;1273;76595;-85
2022/07/27 04:32:37;;;;;;;6.20;1.50;;;;;;;13.18;79.80;101096.92;108585;1272;70343;-84
2022/07/27 04:35:06;;;;;;;4.90;1.10;;;;;;;13.21;79.81;101094.39;108247;1273;72974;-85
2022/07/27 04:37:33;;;;;;;5.30;1.30;;;;;;;13.23;79.47;101100.83;108518;1272;61946;-84
2022/07/27 04:40:01;;;;;;;9.30;1.70;;;;;;;13.25;79.47;101095.94;108450;1273;60610;-84
2022/07/27 04:42:28;;;;;;;4.80;1.50;;;;;;;13.29;79.40;101095.52;108573;1273;75890;-84
2022/07/27 04:44:56;;;;;;;8.50;2.20;;;;;;;13.33;79.32;101092.63;108278;1274;71061;-84
2022/07/27 04:47:23;;;;;;;6.90;1.50;;;;;;;13.38;79.27;101091.11;108228;1273;74761;-84
2022/07/27 04:49:51;;;;;;;11.00;1.50;;;;;;;13.42;78.97;101088.45;108362;1271;63203;-85
2022/07/27 04:52:18;;;;;;;8.30;1.50;;;;;;;13.44;78.93;101089.07;108424;1273;60582;-84
2022/07/27 04:54:53;;;;;;;7.90;2.00;;;;;;;13.49;78.88;101092.09;108286;1271;74899;-85
2022/07/27 04:57:21;;;;;;;6.10;1.30;;;;;;;13.57;78.67;101099.48;108409;1272;71451;-85
2022/07/27 04:59:49;;;;;;;5.10;1.60;;;;;;;13.64;78.65;101102.70;108483;1271;72967;-84
2022/07/27 05:02:15;;;;;;;5.20;1.30;;;;;;;13.70;78.19;101104.33;108571;1271;62814;-85
2022/07/27 05:04:42;;;;;;;4.60;1.30;;;;;;;13.76;77.93;101106.45;108518;1271;61347;-85
2022/07/27 05:07:09;;;;;;;9.70;1.40;;;;;;;13.82;77.57;101106.71;108576;1271;75094;-85
2022/07/27 05:09:36;;;;;;;6.80;1.40;;;;;;;13.89;77.20;101106.33;108085;1269;71075;-84
2022/07/27 05:12:04;;;;;;;9.10;1.90;;;;;;;13.95;77.05;101103.32;108246;1273;71904;-84
2022/07/27 05:14:31;;;;;;;6.50;1.40;;;;;;;14.00;76.98;101101.11;108421;1271;62254;-84
2022/07/27 05:16:58;;;;;;;4.60;1.30;;;;;;;14.03;76.70;101108.71;108338;1271;60582;-85
2022/07/27 05:19:25;;;;;;;7.50;1.10;;;;;;;14.01;76.46;101111.27;108043;1271;77368;-86
2022/07/27 05:22:06;;;;;;;6.20;1.30;;;;;;;14.05;76.44;101115.87;108004;1271;73959;-86
2022/07/27 05:24:34;;;;;;;5.90;1.40;;;;;;;14.07;76.54;101117.24;108288;1274;72854;-85
2022/07/27 05:27:02;;;;;;;4.20;1.00;;;;;;;14.08;76.23;101118.70;108455;1271;62090;-86
2022/07/27 05:29:30;;;;;;;6.50;1.40;;;;;;;14.04;76.38;101120.09;108452;1273;61235;-85
2022/07/27 05:31:57;;;;;;;6.30;1.30;;;;;;;14.09;76.33;101121.42;108469;1271;73923;-87
2022/07/27 05:34:25;;;;;;;4.40;1.20;;;;;;;14.09;76.48;101118.80;108473;1271;71427;-87
2022/07/27 05:36:52;;;;;;;8.40;1.70;;;;;;;14.13;76.48;101118.48;108602;1273;73062;-85
2022/07/27 05:39:19;;;;;;;7.30;1.50;;;;;;;14.19;76.32;101123.45;108494;1271;62204;-85
2022/07/27 05:41:47;;;;;;;7.60;1.70;;;;;;;14.27;75.96;101126.38;108405;1273;60743;-86
2022/07/27 05:44:15;;;;;;;5.60;1.00;;;;;;;14.34;75.46;101129.13;108440;1272;74649;-86
2022/07/27 05:46:43;;;;;;;6.00;1.40;;;;;;;14.38;75.20;101133.08;108505;1271;71593;-86
2022/07/27 05:49:13;;;;;;;10.30;1.30;;;;;;;14.45;74.90;101135.52;108308;1272;75206;-86
2022/07/27 05:51:42;;;;;;;6.80;1.30;;;;;;;14.57;74.65;101140.34;108369;1273;62558;-86
2022/07/27 05:54:09;;;;;;;6.30;1.30;;;;;;;14.67;74.35;101143.70;108588;1271;60663;-86
2022/07/27 05:56:37;;;;;;;9.90;1.80;;;;;;;14.77;73.56;101148.19;108577;1273;75584;-86
2022/07/27 05:59:04;;;;;;;4.70;1.30;;;;;;;14.84;73.21;101155.16;108574;1272;71501;-86
2022/07/27 06:01:34;;;;;;;6.20;1.70;;;;;;;14.93;72.92;101156.84;108537;1274;72700;-86
2022/07/27 06:04:01;;;;;;;4.10;1.30;;;;;;;15.01;72.44;101162.13;108475;1271;62608;-87
2022/07/27 06:09:15;;;;;;;7.60;1.60;;;;;;;15.14;71.16;101166.72;108505;1270;76673;-85
2022/07/27 06:11:42;;;;;;;5.70;1.40;;;;;;;15.22;71.17;101166.36;108640;1272;71467;-85
2022/07/27 06:14:10;;;;;;;8.40;1.30;;;;;;;15.36;70.31;101167.20;108650;1273;73466;-85
2022/07/27 06:16:38;;;;;;;5.10;1.40;;;;;;;15.45;69.24;101170.93;108603;1271;62218;-86
2022/07/27 06:19:06;;;;;;;5.30;1.20;;;;;;;15.55;68.11;101173.11;108554;1271;60593;-86
2022/07/27 06:21:34;;;;;;;5.50;1.20;;;;;;;15.70;67.82;101174.09;108560;1271;74075;-86
2022/07/27 06:24:01;;;;;;;5.80;1.30;;;;;;;15.77;66.98;101177.33;108606;1272;71452;-87
2022/07/27 06:26:28;;;;;;;6.90;1.10;;;;;;;15.87;66.55;101168.90;108542;1272;73216;-86
2022/07/27 06:28:57;;;;;;;3.20;1.10;;;;;;;15.99;65.42;101168.10;108609;1272;62257;-87
2022/07/27 06:31:27;;;;;;;6.80;1.10;;;;;;;16.15;64.80;101174.84;108460;1273;60904;-87
2022/07/27 06:34:01;;;;;;;3.50;1.10;;;;;;;16.34;64.28;101173.87;108624;1271;76530;-87
2022/07/27 06:36:28;;;;;;;3.80;1.20;;;;;;;16.39;63.40;101175.52;108373;1274;72934;-88
2022/07/27 06:38:55;;;;;;;7.80;1.60;;;;;;;16.33;62.81;101175.71;108435;1274;73152;-87
2022/07/27 06:41:22;;;;;;;6.50;1.10;;;;;;;16.33;62.97;101173.36;108604;1272;62173;-87
2022/07/27 06:43:49;;;;;;;7.60;1.30;;;;;;;16.31;62.95;101171.39;108539;1273;60614;-87
2022/07/27 06:46:16;;;;;;;8.10;1.70;;;;;;;16.27;62.91;101178.25;108492;1273;75419;-86
2022/07/27 06:48:43;;;;;;;8.20;1.30;;;;;;;16.20;63.03;101172.82;108585;1272;72001;-86
2022/07/27 06:51:10;;;;;;;5.60;1.00;;;;;;;16.18;63.28;101173.73;108459;1273;74478;-87
2022/07/27 06:53:38;;;;;;;6.60;1.30;;;;;;;16.27;63.14;101174.77;108163;1272;62478;-87
2022/07/27 06:56:08;;;;;;;7.70;1.00;;;;;;;16.41;62.65;101174.51;108549;1271;61258;-88
2022/07/27 06:58:36;;;;;;;7.10;1.30;;;;;;;16.53;61.07;101171.91;108243;1271;74902;-87
2022/07/27 07:01:06;;;;;;;5.70;0.90;;;;;;;16.62;60.69;101175.96;108100;1271;71097;-86
2022/07/27 07:03:34;;;;;;;3.90;0.90;;;;;;;16.77;59.80;101174.41;107853;1271;73832;-86
2022/07/27 07:06:01;;;;;;;5.10;1.10;;;;;;;16.87;59.32;101171.16;108033;1273;61396;-87
2022/07/27 07:08:32;;;;;;;4.40;1.00;;;;;;;16.96;58.66;101171.75;107955;1273;59543;-86
2022/07/27 07:11:00;;;;;;;6.20;1.00;;;;;;;17.09;58.24;101172.94;108277;1272;74703;-87
2022/07/27 07:13:27;;;;;;;8.00;1.20;;;;;;;17.23;58.16;101169.23;108293;1272;70347;-86
2022/07/27 07:15:55;;;;;;;4.40;0.80;;;;;;;17.35;56.92;101167.08;107777;1271;74012;-87
2022/07/27 07:18:22;;;;;;;6.10;1.20;;;;;;;17.43;56.39;101166.39;107991;1271;60632;-87
2022/07/27 07:20:50;;;;;;;4.90;1.00;;;;;;;17.53;56.78;101166.71;107991;1271;61069;-87
2022/07/27 07:23:17;;;;;;;3.10;0.80;;;;;;;17.66;56.58;101165.98;107990;1273;75102;-87
2022/07/27 07:25:44;;;;;;;6.00;1.30;;;;;;;17.66;55.16;101166.80;107615;1273;71656;-87
2022/07/27 07:28:12;;;;;;;3.50;0.90;;;;;;;17.69;54.38;101172.41;108178;1273;74149;-86
2022/07/27 07:30:40;;;;;;;3.50;1.00;;;;;;;17.63;53.16;101167.85;108010;1273;60654;-87
2022/07/27 07:33:08;;;;;;;3.70;0.90;;;;;;;17.56;53.31;101177.45;108219;1274;61296;-88
2022/07/27 07:35:36;;;;;;;2.90;0.80;;;;;;;17.46;53.14;101170.73;108486;1271;73644;-88
2022/07/27 07:38:24;;;;;;;3.10;1.00;;;;;;;17.43;53.98;101173.61;108255;1271;69146;-88
2022/07/27 07:40:51;;;;;;;4.50;0.90;;;;;;;17.66;53.96;101174.11;108140;1272;73395;-87
2022/07/27 07:43:19;;;;;;;5.80;1.10;;;;;;;17.96;53.21;101170.01;108171;1273;59393;-88
2022/07/27 07:45:48;;;;;;;3.50;0.80;;;;;;;18.21;52.27;101180.33;108255;1272;60361;-87
2022/07/27 07:48:19;;;;;;;4.80;1.10;;;;;;;18.24;51.52;101174.73;108057;1271;76428;-87
2022/07/27 07:50:47;;;;;;;4.50;1.10;;;;;;;18.29;51.80;101176.77;108063;1273;72700;-87
2022/07/27 07:53:21;;;;;;;3.50;0.90;;;;;;;18.53;52.15;101177.63;108447;1271;74160;-87
2022/07/27 07:55:49;;;;;;;4.30;0.90;;;;;;;18.81;50.59;101185.33;107894;1272;61759;-88
2022/07/27 07:58:19;;;;;;;4.00;0.60;;;;;;;18.89;48.80;101183.88;108254;1273;62177;-88
2022/07/27 08:00:47;;;;;;;4.00;0.90;;;;;;;18.95;49.27;101180.51;108142;1271;74983;-88
2022/07/27 08:03:15;;;;;;;6.10;1.00;;;;;;;19.11;48.79;101182.88;107802;1273;71298;-87
2022/07/27 08:05:43;;;;;;;4.60;0.80;;;;;;;19.09;47.86;101183.34;108065;1272;72702;-88
2022/07/27 08:08:10;;;;;;;4.60;1.00;;;;;;;18.94;47.38;101192.59;108138;1271;63199;-88
2022/07/27 08:10:38;;;;;;;9.20;1.00;;;;;;;18.64;46.97;101191.98;108219;1271;61741;-88
2022/07/27 08:13:06;;;;;;;10.10;0.90;;;;;;;18.44;47.54;101193.06;108146;1273;76625;-88
2022/07/27 08:15:33;;;;;;;6.80;1.00;;;;;;;18.34;48.50;101194.52;108323;1273;72358;-88
2022/07/27 08:18:05;;;;;;;4.00;0.70;;;;;;;18.16;49.47;101185.48;108468;1271;72920;-88
2022/07/27 08:20:33;;;;;;;3.30;0.70;;;;;;;18.09;50.26;101188.72;108415;1272;60865;-88
2022/07/27 08:23:00;;;;;;;4.40;0.90;;;;;;;18.27;50.52;101191.55;108349;1271;61168;-89
2022/07/27 08:25:27;;;;;;;3.10;0.90;;;;;;;18.52;49.27;101190.78;108236;1271;75804;-87
2022/07/27 08:27:54;;;;;;;2.70;0.70;;;;;;;18.70;48.44;101191.23;108348;1271;72081;-87
2022/07/27 08:30:29;;;;;;;4.40;0.60;;;;;;;18.73;47.99;101189.63;108448;1271;72730;-88
2022/07/27 08:33:01;;;;;;;3.60;0.60;;;;;;;18.65;47.98;101185.82;108194;1274;61302;-87
2022/07/27 08:35:30;;;;;;;4.90;0.90;;;;;;;18.56;47.79;101195.80;108187;1272;61932;-87
2022/07/27 08:37:58;;;;;;;5.10;0.90;;;;;;;18.54;48.06;101190.73;108117;1272;76161;-88
2022/07/27 08:40:27;;;;;;;4.60;1.10;;;;;;;18.51;47.74;101193.14;108147;1271;72053;-88
2022/07/27 08:43:07;;;;;;;3.90;0.60;;;;;;;18.38;46.55;101195.33;108138;1271;72624;-88
2022/07/27 08:45:36;;;;;;;3.80;0.70;;;;;;;18.37;46.00;101185.40;107709;1274;61199;-87
2022/07/27 08:48:05;;;;;;;5.40;1.00;;;;;;;18.64;46.67;101179.02;108236;1272;59700;-86
2022/07/27 08:50:34;;;;;;;4.50;0.80;;;;;;;19.00;45.29;101186.77;107914;1272;75222;-86
2022/07/27 08:53:05;;;;;;;2.70;0.80;;;;;;;19.28;44.12;101177.81;107852;1273;71547;-87
2022/07/27 08:55:34;;;;;;;5.00;0.80;;;;;;;19.54;44.53;101179.04;108415;1271;73332;-88
2022/07/27 08:58:02;;;;;;;4.50;1.10;;;;;;;19.59;43.95;101182.02;108201;1274;60285;-88
2022/07/27 09:00:32;;;;;;;3.90;0.90;;;;;;;19.52;43.96;101183.30;108149;1273;62091;-87
2022/07/27 09:03:00;;;;;;;2.60;0.70;;;;;;;19.33;43.70;101180.66;107977;1272;75077;-87
2022/07/27 09:05:28;;;;;;;3.50;0.90;;;;;;;19.34;44.00;101171.17;108171;1271;72654;-88
2022/07/27 09:08:10;;;;;;;6.60;1.00;;;;;;;19.46;43.25;101175.20;107963;1273;73568;-87
2022/07/27 09:10:37;;;;;;;4.00;0.70;;;;;;;19.56;42.71;101178.79;108379;1272;61157;-87
2022/07/27 09:13:18;;;;;;;3.80;0.50;;;;;;;19.73;42.11;101175.27;108249;1272;61651;-87
2022/07/27 09:15:46;;;;;;;2.80;0.60;;;;;;;20.04;41.72;101169.39;107860;1272;76019;-88
2022/07/27 09:18:36;;;;;;;3.50;0.70;;;;;;;20.19;41.00;101165.08;108081;1272;70648;-87
2022/07/27 09:21:15;;;;;;;2.90;0.80;;;;;;;20.36;41.07;101161.98;108241;1272;72879;-87
2022/07/27 09:23:54;;;;;;;3.60;0.60;;;;;;;20.37;40.69;101163.46;108219;1272;60714;-88
2022/07/27 09:26:27;;;;;;;10.10;0.80;;;;;;;20.24;40.64;101169.57;108321;1271;61575;-88
2022/07/27 09:29:12;;;;;;;4.80;1.10;;;;;;;20.29;41.07;101161.98;108112;1273;74053;-89
2022/07/27 09:31:45;;;;;;;3.90;0.90;;;;;;;20.58;40.68;101165.09;108207;1273;72289;-86
2022/07/27 09:34:26;;;;;;;4.20;0.90;;;;;;;20.79;40.14;101162.63;107897;1273;73388;-87
2022/07/27 09:36:55;;;;;;;3.60;0.70;;;;;;;20.72;39.95;101162.41;108193;1274;60617;-88
2022/07/27 09:39:23;;;;;;;2.50;0.70;;;;;;;20.63;39.93;101162.42;107941;1272;61543;-87
2022/07/27 09:41:54;;;;;;;3.30;0.80;;;;;;;20.44;38.97;101166.33;107943;1273;76100;-88
2022/07/27 09:44:33;;;;;;;3.50;0.60;;;;;;;20.61;39.63;101154.71;107971;1273;72573;-88
2022/07/27 09:47:25;;;;;;;2.60;0.70;;;;;;;20.87;38.87;101153.13;108406;1271;75389;-88
2022/07/27 09:49:57;;;;;;;2.80;0.60;;;;;;;21.08;37.55;101148.59;108027;1273;61306;-88
2022/07/27 09:52:29;;;;;;;2.90;0.60;;;;;;;21.13;37.17;101149.38;108267;1271;60081;-89
2022/07/27 09:55:04;;;;;;;2.30;0.70;;;;;;;21.22;37.31;101150.70;107914;1272;76328;-87
2022/07/27 09:57:52;;;;;;;3.00;0.70;;;;;;;21.08;37.11;101157.46;108163;1271;72609;-88
2022/07/27 10:00:20;;;;;;;3.30;0.50;;;;;;;20.93;37.43;101152.77;108187;1273;74720;-87
2022/07/27 10:02:49;;;;;;;2.40;0.60;;;;;;;20.96;37.80;101154.57;108258;1271;62785;-88
2022/07/27 10:05:22;;;;;;;2.30;0.60;;;;;;;21.21;37.54;101152.42;108171;1272;62355;-88
2022/07/27 10:07:50;;;;;;;3.60;0.80;;;;;;;21.34;37.31;101152.61;108247;1271;73905;-88
2022/07/27 10:10:18;;;;;;;3.20;1.10;;;;;;;21.42;37.82;101153.73;108082;1274;71495;-88
2022/07/27 10:12:46;;;;;;;5.70;0.70;;;;;;;21.44;38.05;101147.35;108061;1271;73800;-88
2022/07/27 10:15:20;;;;;;;2.20;0.40;;;;;;;21.52;38.08;101153.20;108063;1271;60456;-87
2022/07/27 10:17:55;;;;;;;1.70;0.60;;;;;;;21.43;37.02;101160.86;108013;1273;61855;-88
2022/07/27 10:20:23;;;;;;;2.50;0.70;;;;;;;21.28;37.40;101153.73;108100;1271;75996;-87
2022/07/27 10:23:00;;;;;;;3.80;0.60;;;;;;;21.34;36.94;101154.75;108167;1271;72479;-88
2022/07/27 10:25:29;;;;;;;4.60;0.80;;;;;;;21.52;36.22;101150.48;108149;1271;72464;-88
2022/07/27 10:28:17;;;;;;;2.60;0.90;;;;;;;21.80;36.11;101151.07;108119;1272;60613;-89
2022/07/27 10:30:44;;;;;;;3.50;0.70;;;;;;;21.82;36.26;101145.62;108118;1274;59820;-86
2022/07/27 10:33:43;;;;;;;5.70;0.80;;;;;;;21.68;37.04;101161.04;108230;1271;74886;-88
2022/07/27 10:36:15;;;;;;;2.90;0.60;;;;;;;21.57;38.07;101150.84;108312;1271;72686;-88
2022/07/27 10:38:51;;;;;;;3.90;0.80;;;;;;;21.56;38.16;101151.83;108315;1271;73250;-88
2022/07/27 10:41:38;;;;;;;4.10;0.80;;;;;;;21.62;38.38;101149.46;108316;1273;60362;-88
2022/07/27 10:44:17;;;;;;;3.80;0.60;;;;;;;21.72;37.98;101150.70;107854;1271;61127;-88
2022/07/27 10:46:50;;;;;;;1.90;0.60;;;;;;;21.80;36.17;101149.56;108280;1271;76134;-88
2022/07/27 10:49:24;;;;;;;4.70;0.80;;;;;;;22.11;36.11;101146.62;108126;1273;73197;-87
2022/07/27 10:51:52;;;;;;;3.70;0.80;;;;;;;22.19;35.33;101151.00;108224;1271;71666;-88
2022/07/27 10:54:26;;;;;;;4.60;1.00;;;;;;;21.99;35.54;101151.52;108200;1273;60432;-88
2022/07/27 10:56:57;;;;;;;3.50;0.60;;;;;;;22.03;36.09;101146.35;108024;1271;61171;-87
2022/07/27 10:59:41;;;;;;;3.90;0.90;;;;;;;22.37;35.82;101141.98;107842;1271;75095;-89
2022/07/27 11:02:41;;;;;;;4.60;0.80;;;;;;;22.77;35.07;101132.19;107263;1271;943411;-88
2022/07/27 11:05:10;;;;;;;4.20;0.90;;;;;;;22.79;34.34;101146.79;108051;1273;72725;-88
2022/07/27 11:07:58;;;;;;;3.80;0.70;;;;;;;22.61;34.73;101152.52;107983;1272;62080;-87
2022/07/27 11:10:46;;;;;;;4.00;0.60;;;;;;;22.33;35.09;101160.79;108098;1271;61377;-87
2022/07/27 11:13:16;;;;;;;2.80;0.70;;;;;;;22.27;35.27;101156.63;108124;1272;74566;-87
2022/07/27 11:15:53;;;;;;;2.30;0.50;;;;;;;22.41;35.13;101154.83;108342;1273;71587;-88
2022/07/27 11:18:33;;;;;;;3.70;0.60;;;;;;;22.75;35.03;101155.80;108155;1271;72495;-88
2022/07/27 11:21:24;;;;;;;3.00;0.70;;;;;;;22.85;34.46;101156.17;108145;1273;61260;-88
2022/07/27 11:24:08;;;;;;;4.90;0.70;;;;;;;22.89;34.52;101154.51;108133;1273;60705;-87
2022/07/27 11:26:41;;;;;;;4.80;0.80;;;;;;;22.86;34.18;101152.57;108159;1273;75663;-87
2022/07/27 11:29:22;;;;;;;4.30;0.70;;;;;;;22.77;34.24;101156.48;107976;1274;71407;-87
2022/07/27 11:31:53;;;;;;;3.70;1.10;;;;;;;22.47;34.47;101160.94;108070;1273;72940;-87
2022/07/27 11:34:28;;;;;;;2.80;0.60;;;;;;;22.28;34.39;101159.23;108329;1272;61403;-87
2022/07/27 11:36:57;;;;;;;3.10;0.60;;;;;;;22.22;34.89;101158.41;107995;1272;60595;-88